createdAt,value
2023-02-27T00:00:42.822Z,99990.72
2023-02-27T00:01:31.432Z,99990.28
2023-02-27T00:02:18.566Z,99993.56
2023-02-27T00:03:05.733Z,99993.25
2023-02-27T00:03:52.863Z,99994.91
2023-02-27T00:04:40.064Z,99990.69
2023-02-27T00:05:27.133Z,99990.78
2023-02-27T00:06:14.217Z,99996.00
2023-02-27T00:07:01.327Z,99996.00
2023-02-27T00:07:48.502Z,99987.72
2023-02-27T00:08:35.512Z,99992.28
2023-02-27T00:09:22.615Z,99995.66
2023-02-27T00:10:10.793Z,99998.12
2023-02-27T00:10:57.883Z,99985.69
2023-02-27T00:11:45.413Z,99987.38
2023-02-27T00:12:37.924Z,99995.22
2023-02-27T00:13:24.974Z,99991.94
2023-02-27T00:14:12.034Z,99985.84
2023-02-27T00:14:59.020Z,99984.03
2023-02-27T00:15:47.617Z,99988.50
2023-02-27T00:16:34.866Z,99989.31
2023-02-27T00:17:21.973Z,99987.75
2023-02-27T00:18:08.957Z,99990.25
2023-02-27T00:18:57.425Z,99986.56
2023-02-27T00:19:44.497Z,99989.31
2023-02-27T00:20:32.612Z,100001.44
2023-02-27T00:21:19.743Z,99999.63
2023-02-27T00:22:06.740Z,99993.13
2023-02-27T00:22:53.902Z,99993.84
2023-02-27T00:23:40.912Z,99992.03
2023-02-27T00:24:28.080Z,99993.31
2023-02-27T00:25:15.807Z,99986.53
2023-02-27T00:26:02.891Z,99990.97
2023-02-27T00:26:49.982Z,99997.62
2023-02-27T00:27:37.385Z,99989.84
2023-02-27T00:28:24.458Z,100000.78
2023-02-27T00:29:11.887Z,100001.41
2023-02-27T00:29:59.550Z,99990.81
2023-02-27T00:30:46.657Z,100003.84
2023-02-27T00:31:34.963Z,100003.03
2023-02-27T00:32:22.011Z,99993.66
2023-02-27T00:33:09.424Z,99996.16
2023-02-27T00:33:56.721Z,100002.19
2023-02-27T00:34:44.019Z,100005.19
2023-02-27T00:35:31.229Z,100005.09
2023-02-27T00:36:18.206Z,100004.56
2023-02-27T00:37:05.214Z,100004.81
2023-02-27T00:37:52.301Z,100014.44
2023-02-27T00:38:39.284Z,100004.47
2023-02-27T00:39:26.318Z,100006.37
2023-02-27T00:40:13.612Z,100012.31
2023-02-27T00:41:00.691Z,100015.94
2023-02-27T00:41:47.724Z,100009.44
2023-02-27T00:42:35.321Z,100019.84
2023-02-27T00:43:22.646Z,100005.09
2023-02-27T00:44:09.660Z,100014.34
2023-02-27T00:44:56.698Z,100018.38
2023-02-27T00:45:43.832Z,100019.94
2023-02-27T00:46:30.871Z,100013.44
2023-02-27T00:47:17.829Z,100016.84
2023-02-27T00:48:04.846Z,100022.38
2023-02-27T00:48:52.235Z,100028.94
2023-02-27T00:49:39.190Z,100016.25
2023-02-27T00:50:26.267Z,100020.63
2023-02-27T00:51:13.286Z,100023.16
2023-02-27T00:52:00.286Z,100018.69
2023-02-27T00:52:47.307Z,100022.00
2023-02-27T00:53:34.358Z,100022.19
2023-02-27T00:54:21.407Z,100021.84
2023-02-27T00:55:09.297Z,100021.34
2023-02-27T00:55:56.482Z,100029.88
2023-02-27T00:56:43.455Z,100027.97
2023-02-27T00:57:31.026Z,100014.81
2023-02-27T00:58:18.049Z,100022.78
2023-02-27T00:59:05.005Z,100028.41
2023-02-27T00:59:52.281Z,100023.72
2023-02-27T01:00:39.609Z,100023.53
2023-02-27T01:01:26.938Z,100029.28
2023-02-27T01:02:14.312Z,100034.06
2023-02-27T01:03:01.437Z,100024.19
2023-02-27T01:03:48.429Z,100029.38
2023-02-27T01:04:35.567Z,100024.56
2023-02-27T01:05:22.781Z,100022.09
2023-02-27T01:06:09.799Z,100022.31
2023-02-27T01:06:56.894Z,100029.66
2023-02-27T01:07:43.964Z,100033.31
2023-02-27T01:08:30.982Z,100027.66
2023-02-27T01:09:17.942Z,100035.38
2023-02-27T01:10:06.322Z,100031.25
2023-02-27T01:10:55.692Z,100036.41
2023-02-27T01:11:42.771Z,100032.19
2023-02-27T01:12:29.854Z,100040.69
2023-02-27T01:13:16.907Z,100035.88
2023-02-27T01:14:04.023Z,100039.06
2023-02-27T01:14:51.263Z,100043.22
2023-02-27T01:15:38.367Z,100046.09
2023-02-27T01:16:25.565Z,100040.63
2023-02-27T01:17:12.662Z,100043.38
2023-02-27T01:18:00.173Z,100046.78
2023-02-27T01:18:47.224Z,100038.47
2023-02-27T01:19:34.360Z,100043.28
2023-02-27T01:20:21.936Z,100040.75
2023-02-27T01:21:09.128Z,100038.09
2023-02-27T01:21:56.277Z,100041.38
2023-02-27T01:22:43.443Z,100045.69
2023-02-27T01:23:30.604Z,100042.94
2023-02-27T01:24:20.034Z,100050.63
2023-02-27T01:25:07.723Z,100042.88
2023-02-27T01:25:54.692Z,100046.50
2023-02-27T01:26:41.997Z,100052.88
2023-02-27T01:27:29.033Z,100045.41
2023-02-27T01:28:17.255Z,100041.19
2023-02-27T01:29:06.410Z,100041.41
2023-02-27T01:29:53.666Z,100042.47
2023-02-27T01:30:41.709Z,100034.84
2023-02-27T01:31:29.021Z,100038.88
2023-02-27T01:32:16.689Z,100046.50
2023-02-27T01:33:03.827Z,100043.59
2023-02-27T01:33:51.017Z,100043.72
2023-02-27T01:34:38.095Z,100040.34
2023-02-27T01:35:25.204Z,100039.94
2023-02-27T01:36:12.357Z,100045.56
2023-02-27T01:36:59.367Z,100048.44
2023-02-27T01:37:46.417Z,100049.97
2023-02-27T01:38:33.484Z,100055.62
2023-02-27T01:39:20.901Z,100053.34
2023-02-27T01:40:09.114Z,100056.66
2023-02-27T01:40:57.537Z,100055.91
2023-02-27T01:41:44.684Z,100060.69
2023-02-27T01:42:31.787Z,100051.78
2023-02-27T01:43:20.455Z,100052.38
2023-02-27T01:44:10.681Z,100059.41
2023-02-27T01:45:12.893Z,100056.53
2023-02-27T01:46:01.283Z,100055.78
2023-02-27T01:46:48.355Z,100055.50
2023-02-27T01:47:36.202Z,100061.66
2023-02-27T01:48:35.552Z,100062.41
2023-02-27T01:49:28.173Z,100058.88
2023-02-27T01:50:16.066Z,100055.81
2023-02-27T01:51:08.028Z,100060.84
2023-02-27T01:52:03.338Z,100059.03
2023-02-27T01:52:55.102Z,100069.50
2023-02-27T01:53:44.302Z,100061.47
2023-02-27T01:54:32.929Z,100062.19
2023-02-27T01:55:20.638Z,100056.78
2023-02-27T01:56:20.634Z,100061.47
2023-02-27T01:57:08.224Z,100058.59
2023-02-27T01:57:55.359Z,100063.03
2023-02-27T01:58:43.112Z,100061.13
2023-02-27T01:59:30.593Z,100061.84
2023-02-27T02:00:18.002Z,100060.19
2023-02-27T02:01:05.524Z,100060.84
2023-02-27T02:01:52.742Z,100063.16
2023-02-27T02:02:43.072Z,100058.47
2023-02-27T02:03:50.802Z,100066.16
2023-02-27T02:04:39.974Z,100060.38
2023-02-27T02:05:27.324Z,100067.56
2023-02-27T02:06:14.394Z,100069.09
2023-02-27T02:07:11.805Z,100069.66
2023-02-27T02:07:59.242Z,100069.25
2023-02-27T02:08:48.457Z,100069.12
2023-02-27T02:09:39.424Z,100073.81
2023-02-27T02:10:27.422Z,100070.50
2023-02-27T02:11:16.383Z,100073.06
2023-02-27T02:12:04.683Z,100073.06
2023-02-27T02:12:51.808Z,100072.19
2023-02-27T02:13:40.943Z,100073.25
2023-02-27T02:14:28.000Z,100068.63
2023-02-27T02:15:15.283Z,100070.19
2023-02-27T02:16:40.534Z,100072.00
2023-02-27T02:17:49.431Z,100081.13
2023-02-27T02:19:11.323Z,100077.09
2023-02-27T02:20:01.258Z,100076.47
2023-02-27T02:21:06.878Z,100085.28
2023-02-27T02:22:05.587Z,100085.06
2023-02-27T02:23:01.904Z,100073.59
2023-02-27T02:23:54.832Z,100084.44
2023-02-27T02:25:00.536Z,100083.69
2023-02-27T02:26:12.036Z,100075.84
2023-02-27T02:27:35.443Z,100089.00
2023-02-27T02:28:36.053Z,100084.22
2023-02-27T02:29:53.161Z,100097.56
2023-02-27T02:31:01.097Z,100092.81
2023-02-27T02:32:06.587Z,100095.13
2023-02-27T02:33:27.382Z,100094.28
2023-02-27T02:34:26.638Z,100089.09
2023-02-27T02:35:41.184Z,100096.94
2023-02-27T02:37:01.935Z,100094.81
2023-02-27T02:38:07.163Z,100093.31
2023-02-27T02:39:03.170Z,100097.69
2023-02-27T02:40:05.390Z,100098.22
2023-02-27T02:41:08.938Z,100099.38
2023-02-27T02:42:03.696Z,100101.50
2023-02-27T02:43:03.606Z,100105.63
2023-02-27T02:44:14.642Z,100098.59
2023-02-27T02:45:01.450Z,100099.25
2023-02-27T02:46:13.993Z,100102.25
2023-02-27T02:47:16.403Z,100107.53
2023-02-27T02:48:33.322Z,100104.97
2023-02-27T02:49:27.112Z,100100.94
2023-02-27T02:50:28.193Z,100103.50
2023-02-27T02:51:33.185Z,100102.97
2023-02-27T02:52:48.003Z,100110.69
2023-02-27T02:53:57.250Z,100111.84
2023-02-27T02:54:50.404Z,100122.25
2023-02-27T02:55:42.974Z,100110.78
2023-02-27T02:57:02.224Z,100115.00
2023-02-27T02:58:07.422Z,100118.16
2023-02-27T02:59:29.522Z,100118.97
2023-02-27T03:00:19.756Z,100118.97
2023-02-27T03:01:15.675Z,100122.91
2023-02-27T03:02:09.696Z,100120.06
2023-02-27T03:03:00.923Z,100129.06
2023-02-27T03:04:10.936Z,100121.22
2023-02-27T03:05:01.276Z,100122.78
2023-02-27T03:05:57.392Z,100119.97
2023-02-27T03:07:26.225Z,100127.25
2023-02-27T03:08:17.712Z,100129.91
2023-02-27T03:09:19.092Z,100124.47
2023-02-27T03:10:16.120Z,100126.81
2023-02-27T03:11:04.690Z,100126.72
2023-02-27T03:11:52.719Z,100134.72
2023-02-27T03:12:42.137Z,100127.47
2023-02-27T03:13:38.911Z,100129.25
2023-02-27T03:14:31.395Z,100131.78
2023-02-27T03:15:39.079Z,100129.91
2023-02-27T03:16:30.355Z,100128.66
2023-02-27T03:17:23.850Z,100133.00
2023-02-27T03:18:18.874Z,100122.31
2023-02-27T03:19:14.705Z,100125.16
2023-02-27T03:20:07.772Z,100126.00
2023-02-27T03:21:05.903Z,100130.47
2023-02-27T03:22:10.282Z,100135.19
2023-02-27T03:23:00.344Z,100127.38
2023-02-27T03:23:48.751Z,100134.34
2023-02-27T03:24:38.269Z,100139.66
2023-02-27T03:25:26.854Z,100134.75
2023-02-27T03:26:19.949Z,100140.47
2023-02-27T03:27:08.682Z,100137.56
2023-02-27T03:27:59.138Z,100140.56
2023-02-27T03:28:59.997Z,100138.59
2023-02-27T03:29:58.859Z,100145.56
2023-02-27T03:31:01.831Z,100146.16
2023-02-27T03:31:56.982Z,100150.31
2023-02-27T03:32:53.978Z,100153.81
2023-02-27T03:33:56.009Z,100150.22
2023-02-27T03:34:43.525Z,100159.69
2023-02-27T03:35:41.229Z,100150.91
2023-02-27T03:37:06.811Z,100157.59
2023-02-27T03:38:06.856Z,100149.19
2023-02-27T03:39:05.956Z,100146.63
2023-02-27T03:40:06.702Z,100159.37
2023-02-27T03:41:14.646Z,100153.56
2023-02-27T03:42:14.790Z,100153.34
2023-02-27T03:43:32.477Z,100159.31
2023-02-27T03:44:37.726Z,100161.00
2023-02-27T03:45:38.825Z,100159.94
2023-02-27T03:46:27.386Z,100156.28
2023-02-27T03:47:14.426Z,100156.28
2023-02-27T03:48:02.505Z,100160.72
2023-02-27T03:48:49.646Z,100160.22
2023-02-27T03:49:36.657Z,100161.38
2023-02-27T03:50:23.708Z,100173.19
2023-02-27T03:51:15.251Z,100160.81
2023-02-27T03:52:02.224Z,100171.00
2023-02-27T03:52:49.332Z,100167.59
2023-02-27T03:53:46.227Z,100168.75
2023-02-27T03:54:37.460Z,100164.56
2023-02-27T03:55:33.623Z,100161.56
2023-02-27T03:56:25.828Z,100167.31
2023-02-27T03:57:15.475Z,100160.13
2023-02-27T03:58:02.712Z,100158.00
2023-02-27T03:58:50.063Z,100162.41
2023-02-27T03:59:38.275Z,100165.06
2023-02-27T04:00:26.691Z,100167.31
2023-02-27T04:01:13.688Z,100161.81
2023-02-27T04:02:03.858Z,100165.69
2023-02-27T04:02:52.469Z,100167.69
2023-02-27T04:03:46.702Z,100159.19
2023-02-27T04:04:34.071Z,100169.69
2023-02-27T04:05:21.633Z,100164.31
2023-02-27T04:06:27.346Z,100161.28
2023-02-27T04:07:26.752Z,100163.81
2023-02-27T04:08:51.958Z,100167.97
2023-02-27T04:10:00.476Z,100172.78
2023-02-27T04:11:13.037Z,100169.31
2023-02-27T04:12:24.226Z,100175.63
2023-02-27T04:13:19.847Z,100176.34
2023-02-27T04:14:20.267Z,100175.31
2023-02-27T04:15:31.687Z,100178.94
2023-02-27T04:16:38.156Z,100175.53
2023-02-27T04:17:27.201Z,100175.06
2023-02-27T04:18:48.177Z,100188.72
2023-02-27T04:19:38.286Z,100179.06
2023-02-27T04:21:22.537Z,100179.25
2023-02-27T04:22:34.191Z,100174.56
2023-02-27T04:23:46.017Z,100178.44
2023-02-27T04:24:38.084Z,100180.72
2023-02-27T04:25:33.052Z,100176.81
2023-02-27T04:26:34.026Z,100187.88
2023-02-27T04:27:36.411Z,100187.47
2023-02-27T04:28:44.989Z,100177.09
2023-02-27T04:29:43.159Z,100182.94
2023-02-27T04:30:56.280Z,100173.38
2023-02-27T04:32:25.908Z,100170.72
2023-02-27T04:33:31.850Z,100172.31
2023-02-27T04:34:43.948Z,100172.41
2023-02-27T04:35:37.306Z,100177.88
2023-02-27T04:36:27.205Z,100170.81
2023-02-27T04:37:23.523Z,100181.00
2023-02-27T04:38:14.971Z,100178.94
2023-02-27T04:39:10.041Z,100177.25
2023-02-27T04:40:21.097Z,100179.31
2023-02-27T04:41:09.492Z,100178.28
2023-02-27T04:42:02.714Z,100178.47
2023-02-27T04:42:55.232Z,100182.41
2023-02-27T04:43:43.068Z,100176.47
2023-02-27T04:44:32.823Z,100176.97
2023-02-27T04:45:22.209Z,100183.75
2023-02-27T04:46:11.935Z,100178.19
2023-02-27T04:47:00.176Z,100175.75
2023-02-27T04:47:50.993Z,100178.47
2023-02-27T04:48:45.725Z,100181.97
2023-02-27T04:49:42.407Z,100180.91
2023-02-27T04:50:38.222Z,100179.16
2023-02-27T04:51:29.583Z,100172.44
2023-02-27T04:52:21.046Z,100172.81
2023-02-27T04:53:30.963Z,100175.63
2023-02-27T04:54:23.058Z,100181.22
2023-02-27T04:55:22.235Z,100182.25
2023-02-27T04:56:13.653Z,100188.94
2023-02-27T04:57:04.706Z,100184.03
2023-02-27T04:57:55.349Z,100189.91
2023-02-27T04:58:52.395Z,100184.31
2023-02-27T04:59:43.638Z,100187.72
2023-02-27T05:00:31.037Z,100190.91
2023-02-27T05:01:35.381Z,100188.22
2023-02-27T05:02:33.352Z,100192.72
2023-02-27T05:03:25.145Z,100194.72
2023-02-27T05:04:15.574Z,100191.41
2023-02-27T05:05:06.908Z,100194.62
2023-02-27T05:05:57.283Z,100188.84
2023-02-27T05:06:45.073Z,100197.25
2023-02-27T05:07:40.683Z,100195.78
2023-02-27T05:08:55.140Z,100194.72
2023-02-27T05:09:51.548Z,100197.63
2023-02-27T05:10:49.728Z,100195.56
2023-02-27T05:12:00.507Z,100199.16
2023-02-27T05:12:58.033Z,100196.97
2023-02-27T05:14:06.798Z,100202.38
2023-02-27T05:15:28.807Z,100196.81
2023-02-27T05:16:33.269Z,100207.84
2023-02-27T05:17:29.782Z,100200.59
2023-02-27T05:18:21.121Z,100204.06
2023-02-27T05:19:08.851Z,100213.13
2023-02-27T05:19:56.207Z,100210.66
2023-02-27T05:20:46.921Z,100214.75
2023-02-27T05:21:52.833Z,100207.94
2023-02-27T05:22:59.806Z,100207.56
2023-02-27T05:23:56.663Z,100211.25
2023-02-27T05:24:54.718Z,100204.53
2023-02-27T05:25:48.851Z,100205.84
2023-02-27T05:26:50.821Z,100216.25
2023-02-27T05:28:10.084Z,100208.03
2023-02-27T05:29:21.833Z,100212.47
2023-02-27T05:30:25.345Z,100211.03
2023-02-27T05:31:16.651Z,100213.16
2023-02-27T05:32:12.155Z,100214.22
2023-02-27T05:33:11.742Z,100205.75
2023-02-27T05:34:02.754Z,100213.75
2023-02-27T05:35:22.663Z,100205.34
2023-02-27T05:36:16.391Z,100208.94
2023-02-27T05:37:13.173Z,100210.37
2023-02-27T05:38:15.384Z,100211.78
2023-02-27T05:39:06.229Z,100213.47
2023-02-27T05:39:53.611Z,100207.91
2023-02-27T05:41:04.174Z,100208.56
2023-02-27T05:41:54.927Z,100219.13
2023-02-27T05:42:50.131Z,100213.75
2023-02-27T05:43:47.847Z,100214.13
2023-02-27T05:44:45.789Z,100224.44
2023-02-27T05:45:35.200Z,100220.63
2023-02-27T05:46:27.108Z,100212.53
2023-02-27T05:47:18.469Z,100220.94
2023-02-27T05:48:09.444Z,100225.38
2023-02-27T05:49:07.925Z,100223.19
2023-02-27T05:50:18.893Z,100222.31
2023-02-27T05:51:06.220Z,100232.53
2023-02-27T05:51:54.958Z,100223.56
2023-02-27T05:52:43.556Z,100229.03
2023-02-27T05:53:34.448Z,100227.00
2023-02-27T05:54:33.491Z,100227.44
2023-02-27T05:55:34.570Z,100223.44
2023-02-27T05:56:23.899Z,100232.97
2023-02-27T05:57:15.347Z,100230.81
2023-02-27T05:58:06.120Z,100233.69
2023-02-27T05:58:58.709Z,100224.16
2023-02-27T05:59:55.537Z,100234.66
2023-02-27T06:00:54.350Z,100236.16
2023-02-27T06:01:41.443Z,100238.59
2023-02-27T06:02:28.558Z,100236.91
2023-02-27T06:03:15.889Z,100245.88
2023-02-27T06:04:03.110Z,100250.56
2023-02-27T06:04:50.181Z,100242.38
2023-02-27T06:05:38.166Z,100243.28
2023-02-27T06:06:25.443Z,100249.56
2023-02-27T06:07:15.049Z,100250.09
2023-02-27T06:08:02.189Z,100247.97
2023-02-27T06:08:49.198Z,100253.94
2023-02-27T06:09:36.513Z,100248.53
2023-02-27T06:10:23.890Z,100250.22
2023-02-27T06:11:11.021Z,100253.94
2023-02-27T06:11:58.394Z,100251.94
2023-02-27T06:12:45.631Z,100248.66
2023-02-27T06:13:32.903Z,100250.78
2023-02-27T06:14:20.174Z,100259.12
2023-02-27T06:15:07.862Z,100262.31
2023-02-27T06:15:55.166Z,100256.88
2023-02-27T06:16:42.307Z,100264.06
2023-02-27T06:17:29.337Z,100267.37
2023-02-27T06:18:17.511Z,100266.41
2023-02-27T06:19:05.494Z,100269.41
2023-02-27T06:19:52.819Z,100263.47
2023-02-27T06:20:40.320Z,100265.94
2023-02-27T06:21:27.222Z,100268.47
2023-02-27T06:22:14.296Z,100272.62
2023-02-27T06:23:01.424Z,100274.34
2023-02-27T06:23:48.404Z,100267.03
2023-02-27T06:24:35.673Z,100276.34
2023-02-27T06:25:22.926Z,100276.16
2023-02-27T06:26:14.001Z,100278.25
2023-02-27T06:27:01.044Z,100273.69
2023-02-27T06:27:48.892Z,100275.63
2023-02-27T06:28:35.865Z,100277.66
2023-02-27T06:29:22.864Z,100279.25
2023-02-27T06:30:10.615Z,100278.59
2023-02-27T06:30:57.824Z,100278.91
2023-02-27T06:31:44.922Z,100273.81
2023-02-27T06:32:31.927Z,100279.66
2023-02-27T06:33:19.098Z,100284.66
2023-02-27T06:34:06.171Z,100285.50
2023-02-27T06:34:54.308Z,100286.66
2023-02-27T06:35:41.387Z,100286.88
2023-02-27T06:36:30.332Z,100289.88
2023-02-27T06:37:17.608Z,100290.28
2023-02-27T06:38:05.385Z,100289.31
2023-02-27T06:38:52.410Z,100294.00
2023-02-27T06:39:39.380Z,100285.19
2023-02-27T06:40:26.671Z,100294.53
2023-02-27T06:41:13.595Z,100297.59
2023-02-27T06:42:00.751Z,100293.12
2023-02-27T06:42:47.771Z,100303.88
2023-02-27T06:43:36.827Z,100294.44
2023-02-27T06:44:24.012Z,100294.53
2023-02-27T06:45:12.142Z,100294.19
2023-02-27T06:45:59.150Z,100291.66
2023-02-27T06:46:46.219Z,100290.25
2023-02-27T06:47:34.378Z,100288.03
2023-02-27T06:48:21.438Z,100296.09
2023-02-27T06:49:08.506Z,100298.66
2023-02-27T06:49:55.555Z,100293.66
2023-02-27T06:50:42.584Z,100300.03
2023-02-27T06:51:29.676Z,100301.28
2023-02-27T06:52:16.663Z,100290.19
2023-02-27T06:53:04.526Z,100293.69
2023-02-27T06:53:51.516Z,100290.19
2023-02-27T06:54:38.916Z,100295.22
2023-02-27T06:55:26.105Z,100293.94
2023-02-27T06:56:13.313Z,100296.16
2023-02-27T06:57:00.996Z,100291.03
2023-02-27T06:57:48.243Z,100295.81
2023-02-27T06:58:35.176Z,100295.25
2023-02-27T06:59:22.159Z,100299.94
2023-02-27T07:00:12.057Z,100299.72
2023-02-27T07:01:02.873Z,100290.78
2023-02-27T07:01:50.299Z,100301.09
2023-02-27T07:02:37.319Z,100294.94
2023-02-27T07:03:24.316Z,100296.56
2023-02-27T07:04:15.000Z,100299.47
2023-02-27T07:05:05.297Z,100294.59
2023-02-27T07:05:55.328Z,100300.16
2023-02-27T07:07:34.709Z,100295.13
2023-02-27T07:07:49.699Z,100299.06
2023-02-27T07:08:36.768Z,100302.41
2023-02-27T07:09:23.790Z,100289.09
2023-02-27T07:10:13.024Z,100299.00
2023-02-27T07:11:00.036Z,100304.91
2023-02-27T07:11:47.030Z,100302.72
2023-02-27T07:12:33.957Z,100299.25
2023-02-27T07:13:20.966Z,100301.72
2023-02-27T07:14:08.106Z,100300.53
2023-02-27T07:14:55.028Z,100289.31
2023-02-27T07:15:42.159Z,100296.50
2023-02-27T07:16:29.405Z,100302.91
2023-02-27T07:17:16.527Z,100306.50
2023-02-27T07:18:03.598Z,100305.31
2023-02-27T07:18:50.612Z,100304.13
2023-02-27T07:19:37.808Z,100306.81
2023-02-27T07:20:25.569Z,100303.06
2023-02-27T07:21:12.567Z,100302.34
2023-02-27T07:21:59.915Z,100299.94
2023-02-27T07:22:47.086Z,100305.91
2023-02-27T07:23:34.045Z,100304.19
2023-02-27T07:24:21.177Z,100302.38
2023-02-27T07:25:09.139Z,100305.75
2023-02-27T07:25:56.150Z,100313.53
2023-02-27T07:26:43.258Z,100309.03
2023-02-27T07:27:30.314Z,100308.09
2023-02-27T07:28:19.671Z,100302.38
2023-02-27T07:29:07.016Z,100307.34
2023-02-27T07:29:54.207Z,100313.31
2023-02-27T07:30:41.699Z,100312.53
2023-02-27T07:31:29.084Z,100313.91
2023-02-27T07:32:16.474Z,100312.31
2023-02-27T07:33:03.469Z,100308.09
2023-02-27T07:33:50.580Z,100303.22
2023-02-27T07:34:37.680Z,100310.50
2023-02-27T07:35:24.821Z,100306.25
2023-02-27T07:36:11.907Z,100318.84
2023-02-27T07:36:58.983Z,100316.78
2023-02-27T07:37:47.805Z,100315.59
2023-02-27T07:38:34.739Z,100317.16
2023-02-27T07:39:21.912Z,100316.78
2023-02-27T07:40:09.968Z,100316.69
2023-02-27T07:40:58.915Z,100314.97
2023-02-27T07:41:45.970Z,100315.31
2023-02-27T07:42:32.989Z,100312.19
2023-02-27T07:43:19.990Z,100318.50
2023-02-27T07:44:08.920Z,100319.44
2023-02-27T07:44:55.986Z,100319.09
2023-02-27T07:45:43.060Z,100320.19
2023-02-27T07:46:30.500Z,100317.91
2023-02-27T07:47:18.032Z,100322.03
2023-02-27T07:48:05.279Z,100319.56
2023-02-27T07:48:52.201Z,100324.78
2023-02-27T07:49:39.312Z,100327.94
2023-02-27T07:50:26.338Z,100325.13
2023-02-27T07:51:13.492Z,100330.00
2023-02-27T07:52:00.630Z,100322.13
2023-02-27T07:52:47.670Z,100329.75
2023-02-27T07:53:34.721Z,100329.41
2023-02-27T07:54:21.621Z,100331.44
2023-02-27T07:55:10.663Z,100328.91
2023-02-27T07:55:57.896Z,100335.81
2023-02-27T07:56:44.884Z,100333.03
2023-02-27T07:57:32.056Z,100332.31
2023-02-27T07:58:19.050Z,100335.47
2023-02-27T07:59:06.016Z,100337.75
2023-02-27T07:59:53.000Z,100327.22
2023-02-27T08:00:39.906Z,100325.37
2023-02-27T08:01:27.058Z,100334.38
2023-02-27T08:02:14.374Z,100338.84
2023-02-27T08:03:01.513Z,100331.47
2023-02-27T08:03:48.648Z,100336.41
2023-02-27T08:04:35.675Z,100336.19
2023-02-27T08:05:22.722Z,100340.91
2023-02-27T08:06:09.791Z,100336.66
2023-02-27T08:06:57.611Z,100339.34
2023-02-27T08:07:44.533Z,100334.72
2023-02-27T08:08:31.442Z,100337.66
2023-02-27T08:09:18.513Z,100341.03
2023-02-27T08:10:06.192Z,100335.56
2023-02-27T08:10:53.142Z,100341.25
2023-02-27T08:11:40.093Z,100342.09
2023-02-27T08:12:27.057Z,100342.09
2023-02-27T08:13:14.764Z,100336.56
2023-02-27T08:14:02.388Z,100341.41
2023-02-27T08:14:49.746Z,100338.75
2023-02-27T08:15:36.662Z,100348.16
2023-02-27T08:16:23.647Z,100338.00
2023-02-27T08:17:10.570Z,100343.78
2023-02-27T08:17:57.706Z,100344.78
2023-02-27T08:18:44.708Z,100346.63
2023-02-27T08:19:31.698Z,100344.66
2023-02-27T08:20:22.796Z,100346.25
2023-02-27T08:21:10.132Z,100346.69
2023-02-27T08:21:57.051Z,100349.16
2023-02-27T08:22:44.037Z,100351.81
2023-02-27T08:23:34.507Z,100352.78
2023-02-27T08:24:21.860Z,100354.47
2023-02-27T08:25:11.411Z,100354.25
2023-02-27T08:25:58.654Z,100355.06
2023-02-27T08:26:45.594Z,100351.69
2023-02-27T08:27:32.611Z,100352.03
2023-02-27T08:28:19.565Z,100358.34
2023-02-27T08:29:06.540Z,100348.56
2023-02-27T08:29:53.473Z,100346.47
2023-02-27T08:30:40.621Z,100358.47
2023-02-27T08:31:28.002Z,100362.72
2023-02-27T08:32:14.959Z,100358.34
2023-02-27T08:33:02.046Z,100365.00
2023-02-27T08:33:58.073Z,100350.44
2023-02-27T08:34:54.855Z,100362.91
2023-02-27T08:35:41.794Z,100361.50
2023-02-27T08:36:28.962Z,100357.25
2023-02-27T08:37:16.112Z,100356.50
2023-02-27T08:38:03.058Z,100355.78
2023-02-27T08:38:49.991Z,100361.38
2023-02-27T08:39:36.950Z,100352.47
2023-02-27T08:40:23.890Z,100360.94
2023-02-27T08:41:10.870Z,100364.84
2023-02-27T08:41:57.841Z,100361.28
2023-02-27T08:42:44.762Z,100365.19
2023-02-27T08:43:31.651Z,100360.25
2023-02-27T08:44:19.672Z,100369.22
2023-02-27T08:45:09.147Z,100358.87
2023-02-27T08:45:56.058Z,100367.62
2023-02-27T08:46:42.938Z,100367.00
2023-02-27T08:47:30.048Z,100367.28
2023-02-27T08:48:18.670Z,100370.03
2023-02-27T08:49:05.563Z,100358.63
2023-02-27T08:49:52.488Z,100365.16
2023-02-27T08:50:39.398Z,100368.69
2023-02-27T08:51:26.727Z,100371.84
2023-02-27T08:52:13.818Z,100362.63
2023-02-27T08:53:00.721Z,100370.78
2023-02-27T08:53:47.652Z,100370.06
2023-02-27T08:54:34.616Z,100366.16
2023-02-27T08:55:21.801Z,100360.75
2023-02-27T08:56:09.025Z,100365.59
2023-02-27T08:56:56.092Z,100359.56
2023-02-27T08:57:43.010Z,100363.41
2023-02-27T08:58:29.986Z,100363.97
2023-02-27T08:59:17.025Z,100366.47
2023-02-27T09:00:06.931Z,100356.19
2023-02-27T09:00:56.052Z,100360.59
2023-02-27T09:01:43.577Z,100367.13
2023-02-27T09:02:31.162Z,100363.72
2023-02-27T09:03:18.236Z,100371.09
2023-02-27T09:04:06.848Z,100367.19
2023-02-27T09:04:53.935Z,100380.16
2023-02-27T09:05:42.197Z,100373.25
2023-02-27T09:06:29.587Z,100371.97
2023-02-27T09:07:16.666Z,100380.00
2023-02-27T09:08:04.732Z,100377.53
2023-02-27T09:08:51.660Z,100378.59
2023-02-27T09:09:38.556Z,100378.91
2023-02-27T09:10:25.529Z,100380.16
2023-02-27T09:11:12.449Z,100379.59
2023-02-27T09:11:59.387Z,100384.31
2023-02-27T09:12:46.328Z,100374.47
2023-02-27T09:13:33.374Z,100379.97
2023-02-27T09:14:20.529Z,100372.84
2023-02-27T09:15:08.138Z,100379.69
2023-02-27T09:15:55.081Z,100379.31
2023-02-27T09:16:42.195Z,100381.25
2023-02-27T09:17:29.187Z,100376.19
2023-02-27T09:18:16.120Z,100382.72
2023-02-27T09:19:03.168Z,100387.84
2023-02-27T09:19:51.516Z,100400.63
2023-02-27T09:20:40.430Z,100389.56
2023-02-27T09:21:29.255Z,100391.94
2023-02-27T09:22:16.148Z,100390.22
2023-02-27T09:23:06.161Z,100391.72
2023-02-27T09:23:53.237Z,100400.50
2023-02-27T09:24:40.108Z,100396.03
2023-02-27T09:25:27.942Z,100397.63
2023-02-27T09:26:16.317Z,100400.97
2023-02-27T09:27:03.314Z,100392.22
2023-02-27T09:27:50.249Z,100388.66
2023-02-27T09:28:37.887Z,100398.56
2023-02-27T09:29:25.970Z,100394.13
2023-02-27T09:30:13.297Z,100398.56
2023-02-27T09:31:06.088Z,100393.50
2023-02-27T09:31:53.571Z,100399.16
2023-02-27T09:32:40.557Z,100401.44
2023-02-27T09:33:29.294Z,100407.03
2023-02-27T09:34:16.497Z,100407.56
2023-02-27T09:35:03.468Z,100408.59
2023-02-27T09:35:50.472Z,100400.94
2023-02-27T09:36:37.523Z,100403.13
2023-02-27T09:37:25.285Z,100405.59
2023-02-27T09:38:12.528Z,100414.34
2023-02-27T09:39:00.016Z,100405.63
2023-02-27T09:39:47.429Z,100402.59
2023-02-27T09:40:40.245Z,100404.75
2023-02-27T09:42:07.239Z,100398.06
2023-02-27T09:42:58.401Z,100400.31
2023-02-27T09:43:48.365Z,100402.19
2023-02-27T09:44:47.000Z,100398.38
2023-02-27T09:45:39.548Z,100409.19
2023-02-27T09:46:26.784Z,100407.13
2023-02-27T09:47:26.948Z,100411.03
2023-02-27T09:48:23.738Z,100410.31
2023-02-27T09:49:13.159Z,100403.94
2023-02-27T09:50:14.139Z,100411.22